sensor_id;sensor_type;location;lat;lon;timestamp;pressure;altitude;pressure_sealevel;temperature;humidity
21431;BME280;10876;49.038;10.608;2023-04-07T00:00:15;98968.09;;;3.41;100.00
21431;BME280;10876;49.038;10.608;2023-04-07T00:02:42;98960.56;;;3.48;100.00
21431;BME280;10876;49.038;10.608;2023-04-07T00:05:10;98972.81;;;3.55;100.00
21431;BME280;10876;49.038;10.608;2023-04-07T00:07:36;98958.66;;;3.48;100.00
21431;BME280;10876;49.038;10.608;2023-04-07T00:10:06;98956.97;;;3.42;100.00
21431;BME280;10876;49.038;10.608;2023-04-07T00:12:33;98963.16;;;3.37;100.00
21431;BME280;10876;49.038;10.608;2023-04-07T00:15:00;98958.53;;;3.33;100.00
21431;BME280;10876;49.038;10.608;2023-04-07T00:17:27;98962.91;;;3.39;100.00
21431;BME280;10876;49.038;10.608;2023-04-07T00:19:54;98962.75;;;3.51;100.00
21431;BME280;10876;49.038;10.608;2023-04-07T00:22:21;98960.31;;;3.49;100.00
21431;BME280;10876;49.038;10.608;2023-04-07T00:24:49;98957.63;;;3.54;100.00
21431;BME280;10876;49.038;10.608;2023-04-07T00:27:17;98947.78;;;3.43;100.00
21431;BME280;10876;49.038;10.608;2023-04-07T00:29:44;98949.38;;;3.39;100.00
21431;BME280;10876;49.038;10.608;2023-04-07T00:32:11;98939.69;;;3.48;100.00
21431;BME280;10876;49.038;10.608;2023-04-07T00:34:38;98945.22;;;3.58;100.00
21431;BME280;10876;49.038;10.608;2023-04-07T00:37:05;98942.97;;;3.50;100.00
21431;BME280;10876;49.038;10.608;2023-04-07T00:39:32;98936.53;;;3.56;100.00
21431;BME280;10876;49.038;10.608;2023-04-07T00:41:59;98927.31;;;3.57;100.00
21431;BME280;10876;49.038;10.608;2023-04-07T00:44:27;98935.47;;;3.63;100.00
21431;BME280;10876;49.038;10.608;2023-04-07T00:46:54;98933.63;;;3.68;100.00
21431;BME280;10876;49.038;10.608;2023-04-07T00:49:21;98933.91;;;3.72;100.00
21431;BME280;10876;49.038;10.608;2023-04-07T00:51:48;98933.22;;;3.92;100.00
21431;BME280;10876;49.038;10.608;2023-04-07T00:54:16;98939.41;;;3.82;100.00
21431;BME280;10876;49.038;10.608;2023-04-07T00:56:43;98938.78;;;3.70;100.00
21431;BME280;10876;49.038;10.608;2023-04-07T00:59:10;98940.66;;;3.64;100.00
21431;BME280;10876;49.038;10.608;2023-04-07T01:01:43;98932.56;;;3.74;100.00
21431;BME280;10876;49.038;10.608;2023-04-07T01:04:18;98924.25;;;3.86;100.00
21431;BME280;10876;49.038;10.608;2023-04-07T01:06:49;98922.53;;;3.70;100.00
21431;BME280;10876;49.038;10.608;2023-04-07T01:09:22;98921.53;;;3.81;100.00
21431;BME280;10876;49.038;10.608;2023-04-07T01:11:57;98913.81;;;3.63;100.00
21431;BME280;10876;49.038;10.608;2023-04-07T01:14:29;98915.50;;;3.74;100.00
21431;BME280;10876;49.038;10.608;2023-04-07T01:17:00;98910.94;;;3.79;100.00
21431;BME280;10876;49.038;10.608;2023-04-07T01:19:33;98898.41;;;3.68;100.00
21431;BME280;10876;49.038;10.608;2023-04-07T01:22:06;98913.28;;;3.66;100.00
21431;BME280;10876;49.038;10.608;2023-04-07T01:25:08;98912.25;;;3.72;100.00
21431;BME280;10876;49.038;10.608;2023-04-07T01:27:48;98922.59;;;3.80;100.00
21431;BME280;10876;49.038;10.608;2023-04-07T01:30:24;98928.56;;;3.82;100.00
21431;BME280;10876;49.038;10.608;2023-04-07T01:32:53;98924.25;;;3.86;100.00
21431;BME280;10876;49.038;10.608;2023-04-07T01:35:22;98926.09;;;3.80;100.00
21431;BME280;10876;49.038;10.608;2023-04-07T01:37:50;98935.63;;;3.83;100.00
21431;BME280;10876;49.038;10.608;2023-04-07T01:40:20;98924.53;;;3.84;100.00
21431;BME280;10876;49.038;10.608;2023-04-07T01:42:49;98923.75;;;3.94;100.00
21431;BME280;10876;49.038;10.608;2023-04-07T01:45:17;98920.28;;;3.99;100.00
21431;BME280;10876;49.038;10.608;2023-04-07T01:47:45;98914.50;;;3.85;100.00
21431;BME280;10876;49.038;10.608;2023-04-07T01:50:13;98909.66;;;3.87;100.00
21431;BME280;10876;49.038;10.608;2023-04-07T01:52:41;98910.75;;;3.91;100.00
21431;BME280;10876;49.038;10.608;2023-04-07T01:55:09;98899.19;;;4.11;100.00
21431;BME280;10876;49.038;10.608;2023-04-07T01:57:36;98896.31;;;4.43;100.00
21431;BME280;10876;49.038;10.608;2023-04-07T02:00:04;98895.84;;;4.62;100.00
21431;BME280;10876;49.038;10.608;2023-04-07T02:02:32;98898.56;;;4.72;100.00
21431;BME280;10876;49.038;10.608;2023-04-07T02:05:05;98896.41;;;4.74;100.00
21431;BME280;10876;49.038;10.608;2023-04-07T02:07:37;98888.31;;;4.79;100.00
21431;BME280;10876;49.038;10.608;2023-04-07T02:10:10;98885.06;;;4.87;100.00
21431;BME280;10876;49.038;10.608;2023-04-07T02:12:40;98874.22;;;4.87;100.00
21431;BME280;10876;49.038;10.608;2023-04-07T02:15:08;98878.56;;;4.93;100.00
21431;BME280;10876;49.038;10.608;2023-04-07T02:17:42;98872.84;;;5.00;100.00
21431;BME280;10876;49.038;10.608;2023-04-07T02:20:13;98866.06;;;5.03;100.00
21431;BME280;10876;49.038;10.608;2023-04-07T02:22:41;98865.81;;;5.04;100.00
21431;BME280;10876;49.038;10.608;2023-04-07T02:25:22;98861.72;;;5.12;100.00
21431;BME280;10876;49.038;10.608;2023-04-07T02:27:50;98860.63;;;5.23;100.00
21431;BME280;10876;49.038;10.608;2023-04-07T02:30:17;98860.63;;;5.23;100.00
21431;BME280;10876;49.038;10.608;2023-04-07T02:32:44;98862.28;;;5.24;100.00
21431;BME280;10876;49.038;10.608;2023-04-07T02:35:14;98861.19;;;5.20;100.00
21431;BME280;10876;49.038;10.608;2023-04-07T02:37:41;98856.28;;;5.17;100.00
21431;BME280;10876;49.038;10.608;2023-04-07T02:40:09;98851.97;;;5.16;100.00
21431;BME280;10876;49.038;10.608;2023-04-07T02:42:36;98853.03;;;5.15;100.00
21431;BME280;10876;49.038;10.608;2023-04-07T02:45:03;98849.25;;;5.16;100.00
21431;BME280;10876;49.038;10.608;2023-04-07T02:47:30;98851.41;;;5.14;100.00
21431;BME280;10876;49.038;10.608;2023-04-07T02:49:57;98841.38;;;5.14;100.00
21431;BME280;10876;49.038;10.608;2023-04-07T02:52:25;98848.69;;;5.19;100.00
21431;BME280;10876;49.038;10.608;2023-04-07T02:54:52;98843.81;;;5.21;100.00
21431;BME280;10876;49.038;10.608;2023-04-07T02:57:19;98841.91;;;5.22;100.00
21431;BME280;10876;49.038;10.608;2023-04-07T02:59:46;98852.50;;;5.28;100.00
21431;BME280;10876;49.038;10.608;2023-04-07T03:02:13;98844.63;;;5.27;100.00
21431;BME280;10876;49.038;10.608;2023-04-07T03:04:40;98840.00;;;5.27;100.00
21431;BME280;10876;49.038;10.608;2023-04-07T03:07:07;98845.44;;;5.27;100.00
21431;BME280;10876;49.038;10.608;2023-04-07T03:09:36;98841.09;;;5.21;100.00
21431;BME280;10876;49.038;10.608;2023-04-07T03:12:03;98847.59;;;5.25;100.00
21431;BME280;10876;49.038;10.608;2023-04-07T03:14:30;98840.00;;;5.17;100.00
21431;BME280;10876;49.038;10.608;2023-04-07T03:16:57;98844.88;;;5.15;100.00
21431;BME280;10876;49.038;10.608;2023-04-07T03:19:24;98838.38;;;5.31;100.00
21431;BME280;10876;49.038;10.608;2023-04-07T03:21:50;98840.56;;;5.24;100.00
21431;BME280;10876;49.038;10.608;2023-04-07T03:24:17;98835.09;;;5.29;100.00
21431;BME280;10876;49.038;10.608;2023-04-07T03:26:46;98837.81;;;5.29;100.00
21431;BME280;10876;49.038;10.608;2023-04-07T03:29:13;98839.47;;;5.20;100.00
21431;BME280;10876;49.038;10.608;2023-04-07T03:31:40;98841.91;;;5.11;100.00
21431;BME280;10876;49.038;10.608;2023-04-07T03:34:07;98835.69;;;5.21;100.00
21431;BME280;10876;49.038;10.608;2023-04-07T03:36:34;98848.69;;;5.09;100.00
21431;BME280;10876;49.038;10.608;2023-04-07T03:39:01;98839.47;;;5.05;100.00
21431;BME280;10876;49.038;10.608;2023-04-07T03:41:28;98835.69;;;4.95;100.00
21431;BME280;10876;49.038;10.608;2023-04-07T03:43:57;98831.06;;;4.91;100.00
21431;BME280;10876;49.038;10.608;2023-04-07T03:46:24;98830.78;;;4.82;100.00
21431;BME280;10876;49.038;10.608;2023-04-07T03:48:51;98815.03;;;4.94;100.00
21431;BME280;10876;49.038;10.608;2023-04-07T03:51:18;98812.63;;;4.93;100.00
21431;BME280;10876;49.038;10.608;2023-04-07T03:53:45;98809.09;;;4.87;100.00
21431;BME280;10876;49.038;10.608;2023-04-07T03:56:12;98817.22;;;4.92;100.00
21431;BME280;10876;49.038;10.608;2023-04-07T03:58:39;98817.19;;;4.77;100.00
21431;BME280;10876;49.038;10.608;2023-04-07T04:01:08;98819.94;;;4.87;100.00
21431;BME280;10876;49.038;10.608;2023-04-07T04:03:36;98819.94;;;4.87;100.00
21431;BME280;10876;49.038;10.608;2023-04-07T04:06:04;98808.00;;;4.73;100.00
21431;BME280;10876;49.038;10.608;2023-04-07T04:08:31;98795.50;;;4.62;100.00
21431;BME280;10876;49.038;10.608;2023-04-07T04:10:58;98800.38;;;4.65;100.00
21431;BME280;10876;49.038;10.608;2023-04-07T04:13:25;98791.16;;;4.66;100.00
21431;BME280;10876;49.038;10.608;2023-04-07T04:15:52;98776.53;;;4.67;100.00
21431;BME280;10876;49.038;10.608;2023-04-07T04:18:20;98768.38;;;4.72;100.00
21431;BME280;10876;49.038;10.608;2023-04-07T04:20:47;98784.09;;;4.65;100.00
21431;BME280;10876;49.038;10.608;2023-04-07T04:23:14;98769.47;;;4.76;100.00
21431;BME280;10876;49.038;10.608;2023-04-07T04:25:41;98766.19;;;4.74;100.00
21431;BME280;10876;49.038;10.608;2023-04-07T04:28:08;98752.09;;;4.62;100.00
21431;BME280;10876;49.038;10.608;2023-04-07T04:30:35;98767.28;;;4.58;100.00
21431;BME280;10876;49.038;10.608;2023-04-07T04:33:02;98767.84;;;4.65;100.00
21431;BME280;10876;49.038;10.608;2023-04-07T04:35:31;98728.78;;;4.71;100.00
21431;BME280;10876;49.038;10.608;2023-04-07T04:37:58;98730.13;;;4.79;100.00
21431;BME280;10876;49.038;10.608;2023-04-07T04:40:25;98726.56;;;4.83;100.00
21431;BME280;10876;49.038;10.608;2023-04-07T04:42:52;98727.69;;;4.77;100.00
21431;BME280;10876;49.038;10.608;2023-04-07T04:45:19;98748.03;;;4.74;100.00
21431;BME280;10876;49.038;10.608;2023-04-07T04:47:46;98522.84;;;4.74;100.00
21431;BME280;10876;49.038;10.608;2023-04-07T04:50:13;98511.28;;;4.59;100.00
21431;BME280;10876;49.038;10.608;2023-04-07T04:52:41;98501.00;;;4.50;100.00
21431;BME280;10876;49.038;10.608;2023-04-07T04:55:09;98491.75;;;4.57;100.00
21431;BME280;10876;49.038;10.608;2023-04-07T04:57:36;98485.78;;;4.55;100.00
21431;BME280;10876;49.038;10.608;2023-04-07T05:00:05;98480.88;;;4.62;100.00
21431;BME280;10876;49.038;10.608;2023-04-07T05:02:32;98472.75;;;4.57;100.00
21431;BME280;10876;49.038;10.608;2023-04-07T05:04:59;98464.63;;;4.62;100.00
21431;BME280;10876;49.038;10.608;2023-04-07T05:07:26;98456.47;;;4.62;100.00
21431;BME280;10876;49.038;10.608;2023-04-07T05:09:54;98455.88;;;4.75;100.00
21431;BME280;10876;49.038;10.608;2023-04-07T05:12:21;98450.41;;;4.80;100.00
21431;BME280;10876;49.038;10.608;2023-04-07T05:14:48;98454.47;;;4.83;100.00
21431;BME280;10876;49.038;10.608;2023-04-07T05:17:15;98452.56;;;4.83;100.00
21431;BME280;10876;49.038;10.608;2023-04-07T05:19:42;98456.34;;;4.87;100.00
21431;BME280;10876;49.038;10.608;2023-04-07T05:22:09;98456.03;;;4.94;100.00
21431;BME280;10876;49.038;10.608;2023-04-07T05:24:36;98465.28;;;4.88;100.00
21431;BME280;10876;49.038;10.608;2023-04-07T05:27:05;98457.94;;;4.93;100.00
21431;BME280;10876;49.038;10.608;2023-04-07T05:29:32;98462.00;;;4.91;100.00
21431;BME280;10876;49.038;10.608;2023-04-07T05:31:58;98456.06;;;4.89;100.00
21431;BME280;10876;49.038;10.608;2023-04-07T05:34:26;98459.09;;;4.82;100.00
21431;BME280;10876;49.038;10.608;2023-04-07T05:36:53;98460.13;;;4.86;100.00
21431;BME280;10876;49.038;10.608;2023-04-07T05:39:20;98461.22;;;4.85;100.00
21431;BME280;10876;49.038;10.608;2023-04-07T05:41:47;98472.38;;;4.84;100.00
21431;BME280;10876;49.038;10.608;2023-04-07T05:44:15;98465.84;;;4.85;100.00
21431;BME280;10876;49.038;10.608;2023-04-07T05:46:42;98467.75;;;4.89;100.00
21431;BME280;10876;49.038;10.608;2023-04-07T05:49:09;98473.69;;;4.91;100.00
21431;BME280;10876;49.038;10.608;2023-04-07T05:51:36;98471.47;;;4.99;100.00
21431;BME280;10876;49.038;10.608;2023-04-07T05:54:03;98468.13;;;5.12;100.00
21431;BME280;10876;49.038;10.608;2023-04-07T05:56:30;98465.38;;;5.17;100.00
21431;BME280;10876;49.038;10.608;2023-04-07T05:58:57;98481.59;;;5.32;100.00
21431;BME280;10876;49.038;10.608;2023-04-07T06:01:27;98479.47;;;5.24;100.00
21431;BME280;10876;49.038;10.608;2023-04-07T06:03:54;98482.13;;;5.29;100.00
21431;BME280;10876;49.038;10.608;2023-04-07T06:06:23;98472.31;;;5.38;100.00
21431;BME280;10876;49.038;10.608;2023-04-07T06:08:50;98463.56;;;5.47;100.00
21431;BME280;10876;49.038;10.608;2023-04-07T06:11:17;98469.53;;;5.43;100.00
21431;BME280;10876;49.038;10.608;2023-04-07T06:13:45;98466.72;;;5.59;100.00
21431;BME280;10876;49.038;10.608;2023-04-07T06:16:12;98472.72;;;5.56;100.00
21431;BME280;10876;49.038;10.608;2023-04-07T06:18:40;98466.13;;;5.62;100.00
21431;BME280;10876;49.038;10.608;2023-04-07T06:21:07;98474.19;;;5.72;100.00
21431;BME280;10876;49.038;10.608;2023-04-07T06:23:34;98481.53;;;5.72;100.00
21431;BME280;10876;49.038;10.608;2023-04-07T06:26:01;98474.88;;;5.88;100.00
21431;BME280;10876;49.038;10.608;2023-04-07T06:28:28;98478.97;;;5.85;100.00
21431;BME280;10876;49.038;10.608;2023-04-07T06:30:55;98475.03;;;6.02;100.00
21431;BME280;10876;49.038;10.608;2023-04-07T06:33:22;98472.50;;;6.11;100.00
21431;BME280;10876;49.038;10.608;2023-04-07T06:35:51;98474.31;;;6.20;100.00
21431;BME280;10876;49.038;10.608;2023-04-07T06:38:18;98478.09;;;6.24;100.00
21431;BME280;10876;49.038;10.608;2023-04-07T06:40:45;98480.72;;;6.29;100.00
21431;BME280;10876;49.038;10.608;2023-04-07T06:43:12;98484.56;;;6.28;100.00
21431;BME280;10876;49.038;10.608;2023-04-07T06:45:39;98493.47;;;6.34;100.00
21431;BME280;10876;49.038;10.608;2023-04-07T06:48:06;98490.69;;;6.39;100.00
21431;BME280;10876;49.038;10.608;2023-04-07T06:50:35;98487.75;;;6.60;100.00
21431;BME280;10876;49.038;10.608;2023-04-07T06:53:04;98492.72;;;6.76;100.00
21431;BME280;10876;49.038;10.608;2023-04-07T06:55:31;98487.84;;;6.73;100.00
21431;BME280;10876;49.038;10.608;2023-04-07T06:57:58;98492.75;;;6.71;100.00
21431;BME280;10876;49.038;10.608;2023-04-07T07:00:25;98508.44;;;6.80;100.00
21431;BME280;10876;49.038;10.608;2023-04-07T07:02:54;98523.50;;;6.96;100.00
21431;BME280;10876;49.038;10.608;2023-04-07T07:05:21;98528.69;;;7.16;100.00
21431;BME280;10876;49.038;10.608;2023-04-07T07:07:49;98549.84;;;7.00;100.00
21431;BME280;10876;49.038;10.608;2023-04-07T07:10:17;98577.06;;;7.00;100.00
21431;BME280;10876;49.038;10.608;2023-04-07T07:12:47;98593.72;;;7.18;100.00
21431;BME280;10876;49.038;10.608;2023-04-07T07:15:14;98622.31;;;7.20;100.00
21431;BME280;10876;49.038;10.608;2023-04-07T07:17:41;98688.25;;;7.17;100.00
21431;BME280;10876;49.038;10.608;2023-04-07T07:20:09;98683.22;;;7.30;100.00
21431;BME280;10876;49.038;10.608;2023-04-07T07:22:36;98688.44;;;7.26;100.00
21431;BME280;10876;49.038;10.608;2023-04-07T07:25:04;98689.41;;;7.35;100.00
21431;BME280;10876;49.038;10.608;2023-04-07T07:27:32;98694.22;;;7.67;100.00
21431;BME280;10876;49.038;10.608;2023-04-07T07:29:59;98690.25;;;7.79;100.00
21431;BME280;10876;49.038;10.608;2023-04-07T07:32:26;98694.22;;;8.05;100.00
21431;BME280;10876;49.038;10.608;2023-04-07T07:34:53;98689.66;;;8.20;100.00
21431;BME280;10876;49.038;10.608;2023-04-07T07:37:20;98692.03;;;8.45;100.00
21431;BME280;10876;49.038;10.608;2023-04-07T07:39:47;98694.22;;;8.43;100.00
21431;BME280;10876;49.038;10.608;2023-04-07T07:42:14;98702.63;;;8.28;100.00
21431;BME280;10876;49.038;10.608;2023-04-07T07:44:42;98697.38;;;8.12;100.00
21431;BME280;10876;49.038;10.608;2023-04-07T07:47:09;98711.06;;;8.50;100.00
21431;BME280;10876;49.038;10.608;2023-04-07T07:49:37;98741.69;;;8.80;100.00
21431;BME280;10876;49.038;10.608;2023-04-07T07:52:04;98842.75;;;9.13;100.00
21431;BME280;10876;49.038;10.608;2023-04-07T07:54:31;98888.06;;;9.00;100.00
21431;BME280;10876;49.038;10.608;2023-04-07T07:56:57;98871.72;;;8.95;100.00
21431;BME280;10876;49.038;10.608;2023-04-07T07:59:24;98867.19;;;8.90;100.00
21431;BME280;10876;49.038;10.608;2023-04-07T08:01:53;98869.38;;;8.88;100.00
21431;BME280;10876;49.038;10.608;2023-04-07T08:04:20;98865.31;;;9.05;100.00
21431;BME280;10876;49.038;10.608;2023-04-07T08:06:48;98853.88;;;9.02;100.00
21431;BME280;10876;49.038;10.608;2023-04-07T08:09:15;98854.41;;;9.05;100.00
21431;BME280;10876;49.038;10.608;2023-04-07T08:11:42;98853.69;;;9.13;100.00
21431;BME280;10876;49.038;10.608;2023-04-07T08:14:09;98852.53;;;9.33;100.00
21431;BME280;10876;49.038;10.608;2023-04-07T08:16:36;98854.13;;;9.20;100.00
21431;BME280;10876;49.038;10.608;2023-04-07T08:19:05;98849.59;;;9.62;100.00
21431;BME280;10876;49.038;10.608;2023-04-07T08:21:32;98844.16;;;10.03;100.00
21431;BME280;10876;49.038;10.608;2023-04-07T08:23:59;98846.78;;;10.08;100.00
21431;BME280;10876;49.038;10.608;2023-04-07T08:26:26;98836.44;;;9.91;100.00
21431;BME280;10876;49.038;10.608;2023-04-07T08:28:53;98829.34;;;10.18;100.00
21431;BME280;10876;49.038;10.608;2023-04-07T08:31:21;98829.06;;;10.70;100.00
21431;BME280;10876;49.038;10.608;2023-04-07T08:33:48;98822.47;;;10.85;100.00
21431;BME280;10876;49.038;10.608;2023-04-07T08:36:20;98808.84;;;10.57;100.00
21431;BME280;10876;49.038;10.608;2023-04-07T08:38:46;98802.59;;;10.15;100.00
21431;BME280;10876;49.038;10.608;2023-04-07T08:41:17;98801.25;;;10.54;100.00
21431;BME280;10876;49.038;10.608;2023-04-07T08:43:46;98809.81;;;10.61;100.00
21431;BME280;10876;49.038;10.608;2023-04-07T08:46:15;98796.84;;;10.30;100.00
21431;BME280;10876;49.038;10.608;2023-04-07T08:48:49;98781.81;;;10.64;100.00
21431;BME280;10876;49.038;10.608;2023-04-07T08:51:27;98778.97;;;11.14;100.00
21431;BME280;10876;49.038;10.608;2023-04-07T08:54:01;98776.91;;;10.38;100.00
21431;BME280;10876;49.038;10.608;2023-04-07T08:56:31;98776.97;;;11.06;100.00
21431;BME280;10876;49.038;10.608;2023-04-07T08:58:59;98775.38;;;11.05;100.00
21431;BME280;10876;49.038;10.608;2023-04-07T09:01:27;98767.34;;;11.80;100.00
21431;BME280;10876;49.038;10.608;2023-04-07T09:03:56;98756.31;;;11.62;100.00
21431;BME280;10876;49.038;10.608;2023-04-07T09:06:23;98747.59;;;12.17;100.00
21431;BME280;10876;49.038;10.608;2023-04-07T09:08:53;98753.88;;;11.30;100.00
21431;BME280;10876;49.038;10.608;2023-04-07T09:11:19;98752.63;;;11.36;100.00
21431;BME280;10876;49.038;10.608;2023-04-07T09:13:48;98748.47;;;11.47;100.00
21431;BME280;10876;49.038;10.608;2023-04-07T09:16:15;98747.25;;;11.22;100.00
21431;BME280;10876;49.038;10.608;2023-04-07T09:18:42;98748.13;;;11.40;100.00
21431;BME280;10876;49.038;10.608;2023-04-07T09:21:09;98742.44;;;11.27;100.00
21431;BME280;10876;49.038;10.608;2023-04-07T09:23:37;98738.25;;;10.99;100.00
21431;BME280;10876;49.038;10.608;2023-04-07T09:26:27;98735.16;;;11.23;100.00
21431;BME280;10876;49.038;10.608;2023-04-07T09:28:57;98744.09;;;10.61;100.00
21431;BME280;10876;49.038;10.608;2023-04-07T09:31:46;98742.72;;;10.50;100.00
21431;BME280;10876;49.038;10.608;2023-04-07T09:34:25;98739.50;;;10.70;100.00
21431;BME280;10876;49.038;10.608;2023-04-07T09:36:52;98743.94;;;10.44;100.00
21431;BME280;10876;49.038;10.608;2023-04-07T09:39:19;98743.16;;;10.66;100.00
21431;BME280;10876;49.038;10.608;2023-04-07T09:41:49;98735.72;;;11.11;100.00
21431;BME280;10876;49.038;10.608;2023-04-07T09:44:16;98735.88;;;10.83;100.00
21431;BME280;10876;49.038;10.608;2023-04-07T09:46:51;98741.97;;;11.03;100.00
21431;BME280;10876;49.038;10.608;2023-04-07T09:49:18;98733.66;;;10.86;100.00
21431;BME280;10876;49.038;10.608;2023-04-07T09:51:53;98737.38;;;10.67;100.00
21431;BME280;10876;49.038;10.608;2023-04-07T09:54:31;98741.47;;;10.78;100.00
21431;BME280;10876;49.038;10.608;2023-04-07T09:57:01;98743.16;;;10.88;100.00
21431;BME280;10876;49.038;10.608;2023-04-07T09:59:28;98736.31;;;10.77;100.00
21431;BME280;10876;49.038;10.608;2023-04-07T10:01:56;98747.41;;;10.94;100.00
21431;BME280;10876;49.038;10.608;2023-04-07T10:04:24;98749.34;;;10.71;100.00
21431;BME280;10876;49.038;10.608;2023-04-07T10:06:52;98745.66;;;10.53;100.00
21431;BME280;10876;49.038;10.608;2023-04-07T10:09:22;98755.75;;;10.17;100.00
21431;BME280;10876;49.038;10.608;2023-04-07T10:11:49;98748.06;;;10.55;100.00
21431;BME280;10876;49.038;10.608;2023-04-07T10:14:18;98747.31;;;10.41;100.00
21431;BME280;10876;49.038;10.608;2023-04-07T10:16:46;98750.69;;;10.10;100.00
21431;BME280;10876;49.038;10.608;2023-04-07T10:19:14;98753.66;;;10.00;100.00
21431;BME280;10876;49.038;10.608;2023-04-07T10:21:42;98760.03;;;10.09;100.00
21431;BME280;10876;49.038;10.608;2023-04-07T10:24:17;98762.63;;;10.42;100.00
21431;BME280;10876;49.038;10.608;2023-04-07T10:26:55;98762.50;;;10.47;100.00
21431;BME280;10876;49.038;10.608;2023-04-07T10:29:25;98765.47;;;10.36;100.00
21431;BME280;10876;49.038;10.608;2023-04-07T10:31:52;98765.75;;;10.49;100.00
21431;BME280;10876;49.038;10.608;2023-04-07T10:37:18;98772.56;;;10.37;100.00
21431;BME280;10876;49.038;10.608;2023-04-07T10:39:50;98779.19;;;10.36;100.00
21431;BME280;10876;49.038;10.608;2023-04-07T10:42:44;98774.81;;;10.22;100.00
21431;BME280;10876;49.038;10.608;2023-04-07T10:45:13;98781.59;;;10.24;100.00
21431;BME280;10876;49.038;10.608;2023-04-07T10:48:10;98784.13;;;10.34;100.00
21431;BME280;10876;49.038;10.608;2023-04-07T10:50:38;98780.88;;;10.46;100.00
21431;BME280;10876;49.038;10.608;2023-04-07T10:53:07;98778.38;;;10.58;100.00
21431;BME280;10876;49.038;10.608;2023-04-07T10:55:36;98781.50;;;10.66;100.00
21431;BME280;10876;49.038;10.608;2023-04-07T10:58:18;98781.25;;;10.53;100.00
21431;BME280;10876;49.038;10.608;2023-04-07T11:01:19;98787.66;;;10.49;100.00
21431;BME280;10876;49.038;10.608;2023-04-07T11:03:55;98786.19;;;10.29;100.00
21431;BME280;10876;49.038;10.608;2023-04-07T11:06:22;98789.00;;;10.37;100.00
21431;BME280;10876;49.038;10.608;2023-04-07T11:08:51;98788.38;;;10.41;100.00
21431;BME280;10876;49.038;10.608;2023-04-07T11:11:35;98792.59;;;10.60;100.00
21431;BME280;10876;49.038;10.608;2023-04-07T11:14:03;98787.75;;;10.44;100.00
21431;BME280;10876;49.038;10.608;2023-04-07T11:16:40;98785.69;;;10.63;100.00
21431;BME280;10876;49.038;10.608;2023-04-07T11:19:08;98785.19;;;10.83;100.00
21431;BME280;10876;49.038;10.608;2023-04-07T11:21:35;98782.69;;;10.96;100.00
21431;BME280;10876;49.038;10.608;2023-04-07T11:24:02;98789.69;;;10.79;100.00
21431;BME280;10876;49.038;10.608;2023-04-07T11:26:36;98787.31;;;10.87;100.00
21431;BME280;10876;49.038;10.608;2023-04-07T11:29:03;98789.13;;;10.91;100.00
21431;BME280;10876;49.038;10.608;2023-04-07T11:31:30;98776.72;;;11.16;100.00
21431;BME280;10876;49.038;10.608;2023-04-07T11:34:00;98779.06;;;11.32;100.00
21431;BME280;10876;49.038;10.608;2023-04-07T11:36:29;98784.28;;;11.42;100.00
21431;BME280;10876;49.038;10.608;2023-04-07T11:38:57;98784.28;;;11.42;100.00
21431;BME280;10876;49.038;10.608;2023-04-07T11:41:25;98782.84;;;11.44;100.00
21431;BME280;10876;49.038;10.608;2023-04-07T11:44:06;98774.97;;;11.20;100.00
21431;BME280;10876;49.038;10.608;2023-04-07T11:46:33;98778.53;;;11.52;100.00
21431;BME280;10876;49.038;10.608;2023-04-07T11:49:10;98781.47;;;11.64;100.00
21431;BME280;10876;49.038;10.608;2023-04-07T11:51:37;98772.69;;;11.45;100.00
21431;BME280;10876;49.038;10.608;2023-04-07T11:54:04;98775.16;;;11.55;100.00
21431;BME280;10876;49.038;10.608;2023-04-07T11:56:41;98770.78;;;11.54;100.00
21431;BME280;10876;49.038;10.608;2023-04-07T11:59:08;98775.81;;;11.30;100.00
21431;BME280;10876;49.038;10.608;2023-04-07T12:01:44;98766.69;;;11.43;100.00
21431;BME280;10876;49.038;10.608;2023-04-07T12:04:14;98770.97;;;11.58;100.00
21431;BME280;10876;49.038;10.608;2023-04-07T12:06:42;98766.28;;;11.58;100.00
21431;BME280;10876;49.038;10.608;2023-04-07T12:09:25;98762.66;;;11.80;100.00
21431;BME280;10876;49.038;10.608;2023-04-07T12:11:53;98763.59;;;11.76;100.00
21431;BME280;10876;49.038;10.608;2023-04-07T12:14:20;98767.56;;;11.52;100.00
21431;BME280;10876;49.038;10.608;2023-04-07T12:16:47;98760.16;;;11.61;100.00
21431;BME280;10876;49.038;10.608;2023-04-07T12:19:15;98771.28;;;11.56;100.00
21431;BME280;10876;49.038;10.608;2023-04-07T12:21:42;98763.16;;;11.42;100.00
21431;BME280;10876;49.038;10.608;2023-04-07T12:24:09;98773.31;;;11.42;100.00
21431;BME280;10876;49.038;10.608;2023-04-07T12:26:36;98772.47;;;11.72;100.00
21431;BME280;10876;49.038;10.608;2023-04-07T12:29:04;98769.88;;;11.67;100.00
21431;BME280;10876;49.038;10.608;2023-04-07T12:31:31;98766.34;;;11.76;100.00
21431;BME280;10876;49.038;10.608;2023-04-07T12:33:59;98766.97;;;11.72;100.00
21431;BME280;10876;49.038;10.608;2023-04-07T12:36:27;98759.34;;;11.92;100.00
21431;BME280;10876;49.038;10.608;2023-04-07T12:38:54;98763.44;;;12.21;100.00
21431;BME280;10876;49.038;10.608;2023-04-07T12:41:21;98760.41;;;12.48;100.00
21431;BME280;10876;49.038;10.608;2023-04-07T12:43:48;98751.81;;;12.50;100.00
21431;BME280;10876;49.038;10.608;2023-04-07T12:46:15;98740.03;;;12.23;100.00
21431;BME280;10876;49.038;10.608;2023-04-07T12:48:43;98737.13;;;12.54;100.00
21431;BME280;10876;49.038;10.608;2023-04-07T12:51:10;98736.78;;;12.30;100.00
21431;BME280;10876;49.038;10.608;2023-04-07T12:53:38;98740.63;;;11.94;100.00
21431;BME280;10876;49.038;10.608;2023-04-07T12:56:05;98738.09;;;12.76;100.00